createdAt,value
2018-07-31T00:01:50.520Z,1.93
2018-07-31T00:04:17.918Z,1.93
2018-07-31T00:06:45.381Z,1.80
2018-07-31T00:09:12.816Z,2.17
2018-07-31T00:11:40.198Z,1.90
2018-07-31T00:14:07.623Z,2.13
2018-07-31T00:16:35.088Z,2.30
2018-07-31T00:19:02.487Z,1.90
2018-07-31T00:21:29.891Z,1.70
2018-07-31T00:23:57.290Z,1.93
2018-07-31T00:26:24.706Z,1.70
2018-07-31T00:28:52.111Z,1.87
2018-07-31T00:31:19.514Z,1.93
2018-07-31T00:33:46.913Z,1.83
2018-07-31T00:36:14.309Z,1.80
2018-07-31T00:38:41.718Z,1.87
2018-07-31T00:41:09.147Z,1.87
2018-07-31T00:43:36.580Z,1.80
2018-07-31T00:46:04.144Z,2.07
2018-07-31T00:48:31.554Z,1.70
2018-07-31T00:50:58.961Z,1.80
2018-07-31T00:53:26.404Z,1.80
2018-07-31T00:55:53.803Z,1.90
2018-07-31T00:58:21.187Z,1.80
2018-07-31T01:00:48.634Z,2.13
2018-07-31T01:03:16.019Z,1.80
2018-07-31T01:05:43.435Z,1.90
2018-07-31T01:08:10.888Z,1.93
2018-07-31T01:10:38.291Z,1.70
2018-07-31T01:13:05.717Z,2.30
2018-07-31T01:15:33.155Z,1.73
2018-07-31T01:18:00.578Z,1.73
2018-07-31T01:20:28.032Z,1.73
2018-07-31T01:22:55.482Z,1.70
2018-07-31T01:25:22.897Z,2.10
2018-07-31T01:27:50.276Z,2.10
2018-07-31T01:30:17.704Z,1.67
2018-07-31T01:32:45.111Z,2.03
2018-07-31T01:35:12.499Z,1.93
2018-07-31T01:37:39.920Z,1.97
2018-07-31T01:40:07.320Z,1.90
2018-07-31T01:42:34.733Z,2.53
2018-07-31T01:45:02.159Z,1.60
2018-07-31T01:47:29.560Z,2.27
2018-07-31T01:49:57.014Z,1.83
2018-07-31T01:52:24.627Z,1.70
2018-07-31T01:54:52.370Z,1.40
2018-07-31T01:57:19.815Z,1.67
2018-07-31T01:59:47.258Z,1.40
2018-07-31T02:02:14.665Z,2.07
2018-07-31T02:04:42.092Z,2.13
2018-07-31T02:07:09.520Z,1.80
2018-07-31T02:09:36.932Z,1.90
2018-07-31T02:12:04.339Z,1.93
2018-07-31T02:14:31.747Z,1.87
2018-07-31T02:16:59.194Z,2.00
2018-07-31T02:19:26.647Z,1.83
2018-07-31T02:21:54.104Z,2.20
2018-07-31T02:24:21.502Z,2.37
2018-07-31T02:26:48.913Z,2.00
2018-07-31T02:29:20.896Z,2.10
2018-07-31T02:31:48.296Z,1.80
2018-07-31T02:34:15.704Z,1.90
2018-07-31T02:36:43.125Z,2.30
2018-07-31T02:39:10.576Z,1.90
2018-07-31T02:41:37.975Z,2.50
2018-07-31T02:44:05.385Z,2.27
2018-07-31T02:46:32.802Z,1.70
2018-07-31T02:49:00.195Z,2.23
2018-07-31T02:51:27.613Z,1.97
2018-07-31T02:53:55.021Z,2.20
2018-07-31T02:56:22.432Z,2.60
2018-07-31T02:58:49.830Z,2.40
2018-07-31T03:01:17.231Z,2.00
2018-07-31T03:03:44.674Z,2.60
2018-07-31T03:06:12.092Z,2.30
2018-07-31T03:08:39.526Z,2.30
2018-07-31T03:11:06.945Z,2.63
2018-07-31T03:13:34.388Z,2.37
2018-07-31T03:16:01.833Z,2.30
2018-07-31T03:18:29.264Z,2.77
2018-07-31T03:20:56.667Z,2.40
2018-07-31T03:23:24.119Z,2.30
2018-07-31T03:25:51.556Z,2.20
2018-07-31T03:28:19.008Z,2.23
2018-07-31T03:30:46.361Z,2.37
2018-07-31T03:33:13.798Z,1.90
2018-07-31T03:35:41.230Z,2.50
2018-07-31T03:38:08.636Z,2.27
2018-07-31T03:40:36.033Z,1.97
2018-07-31T03:43:03.456Z,2.60
2018-07-31T03:45:31.028Z,2.40
2018-07-31T03:47:58.526Z,3.30
2018-07-31T03:50:25.934Z,2.23
2018-07-31T03:52:53.367Z,2.10
2018-07-31T03:55:20.762Z,2.70
2018-07-31T03:57:48.208Z,2.20
2018-07-31T04:00:15.889Z,2.40
2018-07-31T04:02:43.314Z,2.40
2018-07-31T04:05:10.708Z,2.67
2018-07-31T04:07:38.130Z,2.37
2018-07-31T04:10:05.571Z,2.83
2018-07-31T04:12:33.010Z,2.70
2018-07-31T04:15:00.415Z,2.83
2018-07-31T04:17:27.824Z,3.60
2018-07-31T04:19:55.213Z,3.47
2018-07-31T04:22:22.644Z,3.63
2018-07-31T04:24:50.041Z,3.17
2018-07-31T04:27:17.488Z,3.60
2018-07-31T04:29:44.892Z,3.30
2018-07-31T04:32:12.325Z,4.20
2018-07-31T04:34:39.732Z,3.57
2018-07-31T04:37:07.155Z,4.00
2018-07-31T04:39:34.546Z,4.50
2018-07-31T04:42:01.939Z,4.10
2018-07-31T04:44:29.319Z,4.03
2018-07-31T04:46:56.751Z,4.50
2018-07-31T04:49:24.147Z,4.13
2018-07-31T04:51:51.562Z,3.67
2018-07-31T04:54:18.954Z,4.20
2018-07-31T04:56:46.456Z,4.33
2018-07-31T04:59:13.886Z,4.30
2018-07-31T05:01:41.308Z,4.90
2018-07-31T05:04:08.728Z,4.20
2018-07-31T05:06:36.139Z,5.40
2018-07-31T05:09:06.820Z,5.33
2018-07-31T05:11:34.212Z,5.70
2018-07-31T05:14:01.702Z,5.87
2018-07-31T05:16:29.160Z,5.73
2018-07-31T05:18:56.578Z,5.47
2018-07-31T05:21:23.991Z,5.80
2018-07-31T05:23:51.518Z,5.70
2018-07-31T05:26:18.919Z,5.60
2018-07-31T05:28:46.304Z,5.40
2018-07-31T05:31:13.761Z,5.53
2018-07-31T05:33:41.203Z,5.07
2018-07-31T05:36:08.618Z,5.57
2018-07-31T05:38:36.043Z,5.60
2018-07-31T05:41:03.464Z,6.00
2018-07-31T05:43:30.875Z,5.63
2018-07-31T05:45:58.777Z,5.67
2018-07-31T05:48:26.172Z,5.10
2018-07-31T05:50:53.599Z,5.97
2018-07-31T05:53:21.019Z,6.40
2018-07-31T05:55:48.505Z,6.30
2018-07-31T05:58:15.932Z,5.67
2018-07-31T06:00:43.373Z,6.07
2018-07-31T06:03:10.906Z,5.23
2018-07-31T06:05:38.305Z,5.70
2018-07-31T06:08:05.728Z,6.30
2018-07-31T06:10:33.147Z,6.10
2018-07-31T06:13:00.556Z,5.50
2018-07-31T06:15:27.946Z,5.90
2018-07-31T06:17:55.339Z,6.00
2018-07-31T06:20:23.090Z,5.70
2018-07-31T06:22:50.474Z,4.90
2018-07-31T06:25:17.903Z,6.50
2018-07-31T06:27:45.325Z,5.63
2018-07-31T06:30:14.071Z,5.97
2018-07-31T06:32:42.154Z,5.80
2018-07-31T06:35:09.596Z,5.67
2018-07-31T06:37:37.035Z,5.17
2018-07-31T06:40:04.747Z,5.42
2018-07-31T06:42:32.204Z,6.13
2018-07-31T06:45:00.574Z,5.77
2018-07-31T06:47:28.478Z,5.90
2018-07-31T06:49:55.903Z,5.97
2018-07-31T06:52:23.359Z,6.43
2018-07-31T06:54:51.063Z,6.70
2018-07-31T06:57:18.779Z,6.40
2018-07-31T06:59:46.235Z,5.73
2018-07-31T07:02:13.630Z,6.23
2018-07-31T07:04:41.143Z,6.27
2018-07-31T07:07:08.645Z,6.20
2018-07-31T07:09:36.083Z,6.42
2018-07-31T07:12:03.600Z,6.70
2018-07-31T07:14:31.007Z,6.50
2018-07-31T07:16:58.715Z,7.33
2018-07-31T07:19:26.109Z,7.08
2018-07-31T07:21:53.548Z,5.70
2018-07-31T07:24:21.751Z,6.53
2018-07-31T07:26:49.195Z,6.33
2018-07-31T07:29:16.610Z,5.83
2018-07-31T07:31:44.063Z,5.90
2018-07-31T07:34:11.459Z,5.95
2018-07-31T07:36:38.884Z,6.35
2018-07-31T07:39:08.781Z,5.62
2018-07-31T07:41:36.380Z,5.47
2018-07-31T07:44:03.863Z,5.58
2018-07-31T07:46:31.275Z,5.83
2018-07-31T07:48:58.656Z,5.17
2018-07-31T07:51:26.108Z,4.80
2018-07-31T07:53:53.562Z,4.87
2018-07-31T07:56:20.906Z,4.85
2018-07-31T07:58:48.313Z,4.72
2018-07-31T08:01:15.708Z,4.42
2018-07-31T08:03:43.163Z,4.12
2018-07-31T08:06:10.524Z,4.97
2018-07-31T08:08:37.946Z,4.50
2018-07-31T08:11:05.671Z,5.20
2018-07-31T08:13:33.072Z,4.03
2018-07-31T08:16:00.498Z,4.55
2018-07-31T08:18:28.023Z,5.03
2018-07-31T08:20:55.436Z,5.10
2018-07-31T08:23:22.858Z,5.40
2018-07-31T08:25:50.254Z,5.20
2018-07-31T08:28:17.808Z,5.55
2018-07-31T08:30:45.215Z,4.65
2018-07-31T08:33:12.615Z,5.05
2018-07-31T08:35:40.171Z,5.47
2018-07-31T08:38:07.600Z,5.60
2018-07-31T08:40:35.244Z,5.20
2018-07-31T08:43:02.767Z,5.83
2018-07-31T08:45:30.182Z,5.15
2018-07-31T08:47:57.599Z,5.47
2018-07-31T08:50:24.987Z,5.37
2018-07-31T08:52:52.392Z,5.67
2018-07-31T08:55:19.799Z,4.67
2018-07-31T08:57:47.191Z,4.33
2018-07-31T09:00:14.649Z,4.65
2018-07-31T09:02:42.121Z,4.83
2018-07-31T09:05:09.547Z,3.62
2018-07-31T09:07:36.937Z,3.90
2018-07-31T09:10:04.805Z,3.83
2018-07-31T09:12:32.227Z,3.55
2018-07-31T09:14:59.651Z,3.42
2018-07-31T09:17:27.169Z,3.67
2018-07-31T09:19:54.526Z,3.58
2018-07-31T09:22:21.984Z,3.62
2018-07-31T09:24:49.445Z,3.70
2018-07-31T09:27:16.841Z,2.85
2018-07-31T09:29:44.251Z,2.85
2018-07-31T09:32:11.695Z,2.60
2018-07-31T09:34:46.407Z,2.62
2018-07-31T09:37:14.294Z,2.80
2018-07-31T09:39:41.746Z,2.33
2018-07-31T09:42:09.138Z,1.92
2018-07-31T09:44:36.556Z,1.98
2018-07-31T09:47:04.319Z,1.57
2018-07-31T09:49:31.760Z,1.77
2018-07-31T09:51:59.200Z,1.65
2018-07-31T09:54:26.605Z,1.50
2018-07-31T09:56:53.995Z,1.52
2018-07-31T09:59:21.443Z,1.47
2018-07-31T10:01:48.897Z,1.55
2018-07-31T10:04:16.327Z,1.30
2018-07-31T10:06:43.736Z,1.50
2018-07-31T10:09:11.185Z,1.30
2018-07-31T10:11:38.646Z,1.70
2018-07-31T10:14:06.098Z,1.37
2018-07-31T10:16:33.518Z,1.47
2018-07-31T10:19:00.925Z,1.55
2018-07-31T10:21:28.358Z,1.30
2018-07-31T10:23:55.783Z,1.60
2018-07-31T10:26:23.241Z,1.37
2018-07-31T10:28:50.622Z,1.40
2018-07-31T10:31:18.168Z,1.40
2018-07-31T10:33:45.627Z,1.30
2018-07-31T10:36:13.138Z,1.30
2018-07-31T10:38:40.547Z,1.37
2018-07-31T10:41:07.961Z,1.17
2018-07-31T10:43:35.396Z,1.67
2018-07-31T10:46:02.941Z,1.32
2018-07-31T10:48:30.379Z,1.30
2018-07-31T10:50:57.782Z,1.40
2018-07-31T10:53:25.454Z,1.70
2018-07-31T10:55:52.862Z,1.75
2018-07-31T10:58:20.297Z,1.65
2018-07-31T11:00:47.695Z,1.40
2018-07-31T11:03:15.227Z,1.40
2018-07-31T11:05:42.538Z,1.40
2018-07-31T11:08:09.932Z,1.37
2018-07-31T11:10:37.367Z,1.45
2018-07-31T11:13:04.841Z,1.57
2018-07-31T11:15:32.251Z,1.60
2018-07-31T11:17:59.666Z,1.60
2018-07-31T11:20:27.104Z,2.08
2018-07-31T11:22:54.573Z,1.50
2018-07-31T11:25:21.984Z,1.35
2018-07-31T11:27:49.358Z,1.70
2018-07-31T11:30:16.775Z,1.55
2018-07-31T11:32:44.447Z,1.62
2018-07-31T11:35:11.848Z,1.40
2018-07-31T11:37:39.292Z,1.50
2018-07-31T11:40:06.728Z,2.10
2018-07-31T11:42:34.155Z,1.20
2018-07-31T11:45:01.575Z,1.70
2018-07-31T11:47:28.997Z,1.40
2018-07-31T11:49:56.481Z,1.45
2018-07-31T11:52:23.852Z,1.25
2018-07-31T11:54:51.252Z,1.32
2018-07-31T11:57:18.674Z,1.32
2018-07-31T11:59:46.103Z,1.40
2018-07-31T12:02:13.516Z,1.25
2018-07-31T12:04:40.936Z,1.00
2018-07-31T12:07:08.547Z,1.70
2018-07-31T12:09:35.947Z,1.37
2018-07-31T12:12:03.355Z,1.42
2018-07-31T12:14:30.784Z,1.22
2018-07-31T12:16:58.172Z,1.30
2018-07-31T12:19:25.595Z,1.45
2018-07-31T12:21:52.996Z,1.00
2018-07-31T12:24:20.405Z,1.22
2018-07-31T12:26:47.823Z,1.60
2018-07-31T12:29:15.220Z,2.00
2018-07-31T12:31:42.664Z,1.80
2018-07-31T12:34:10.087Z,2.00
2018-07-31T12:36:37.494Z,1.90
2018-07-31T12:39:07.652Z,1.92
2018-07-31T12:41:35.064Z,2.00
2018-07-31T12:44:02.563Z,1.87
2018-07-31T12:46:29.988Z,2.08
2018-07-31T12:48:57.439Z,1.70
2018-07-31T12:51:24.859Z,1.67
2018-07-31T12:53:52.259Z,1.87
2018-07-31T12:56:19.670Z,1.70
2018-07-31T12:58:47.067Z,1.80
2018-07-31T13:01:14.493Z,2.10
2018-07-31T13:03:41.940Z,2.33
2018-07-31T13:06:09.372Z,1.80
2018-07-31T13:08:36.820Z,1.77
2018-07-31T13:11:04.263Z,1.95
2018-07-31T13:13:31.667Z,1.90
2018-07-31T13:15:59.090Z,2.10
2018-07-31T13:18:26.494Z,1.98
2018-07-31T13:20:53.926Z,2.00
2018-07-31T13:23:22.154Z,2.02
2018-07-31T13:25:49.584Z,2.10
2018-07-31T13:28:16.989Z,1.92
2018-07-31T13:30:44.407Z,2.27
2018-07-31T13:33:11.845Z,2.20
2018-07-31T13:35:39.864Z,1.90
2018-07-31T13:38:07.288Z,2.20
2018-07-31T13:40:34.703Z,2.10
2018-07-31T13:43:02.120Z,2.30
2018-07-31T13:45:29.527Z,2.00
2018-07-31T13:47:56.956Z,2.20
2018-07-31T13:50:24.374Z,2.47
2018-07-31T13:52:51.820Z,2.00
2018-07-31T13:55:19.301Z,1.92
2018-07-31T13:57:46.675Z,2.15
2018-07-31T14:00:14.094Z,2.22
2018-07-31T14:02:41.530Z,2.35
2018-07-31T14:05:09.108Z,2.72
2018-07-31T14:07:36.578Z,2.37
2018-07-31T14:10:04.352Z,2.10
2018-07-31T14:12:31.784Z,2.00
2018-07-31T14:14:59.227Z,2.02
2018-07-31T14:17:26.639Z,1.80
2018-07-31T14:19:54.031Z,2.10
2018-07-31T14:22:21.407Z,2.08
2018-07-31T14:24:48.804Z,1.80
2018-07-31T14:27:16.228Z,2.00
2018-07-31T14:29:43.643Z,2.20
2018-07-31T14:32:11.102Z,1.98
2018-07-31T14:34:38.491Z,2.02
2018-07-31T14:37:05.911Z,1.90
2018-07-31T14:39:33.336Z,2.00
2018-07-31T14:42:00.723Z,2.00
2018-07-31T14:44:28.133Z,2.15
2018-07-31T14:46:55.787Z,2.20
2018-07-31T14:49:23.334Z,2.17
2018-07-31T14:51:50.716Z,2.17
2018-07-31T14:54:18.114Z,2.05
2018-07-31T14:56:45.615Z,1.80
2018-07-31T14:59:13.043Z,2.00
2018-07-31T15:01:40.450Z,2.02
2018-07-31T15:04:07.952Z,1.92
2018-07-31T15:06:35.643Z,2.15
2018-07-31T15:09:04.784Z,2.27
2018-07-31T15:11:32.189Z,2.17
2018-07-31T15:13:59.634Z,1.87
2018-07-31T15:16:27.043Z,2.10
2018-07-31T15:18:54.465Z,1.95
2018-07-31T15:21:21.881Z,1.82
2018-07-31T15:23:49.303Z,1.95
2018-07-31T15:26:16.730Z,2.60
2018-07-31T15:28:44.138Z,2.10
2018-07-31T15:31:11.528Z,2.10
2018-07-31T15:33:38.919Z,2.20
2018-07-31T15:36:06.340Z,1.85
2018-07-31T15:38:33.802Z,2.55
2018-07-31T15:41:01.219Z,2.20
2018-07-31T15:43:28.615Z,1.82
2018-07-31T15:45:56.018Z,2.33
2018-07-31T15:48:23.452Z,2.08
2018-07-31T15:50:50.881Z,2.33
2018-07-31T15:53:18.547Z,2.25
2018-07-31T15:55:45.971Z,2.17
2018-07-31T15:58:13.395Z,2.35
2018-07-31T16:00:40.779Z,2.10
2018-07-31T16:03:08.197Z,1.98
2018-07-31T16:05:35.607Z,2.47
2018-07-31T16:08:03.046Z,2.20
2018-07-31T16:10:30.443Z,2.37
2018-07-31T16:12:57.873Z,2.00
2018-07-31T16:15:25.293Z,2.40
2018-07-31T16:17:52.719Z,2.00
2018-07-31T16:20:20.162Z,2.35
2018-07-31T16:22:47.620Z,2.30
2018-07-31T16:25:15.034Z,2.58
2018-07-31T16:27:42.482Z,2.10
2018-07-31T16:30:09.916Z,2.35
2018-07-31T16:32:37.397Z,2.10
2018-07-31T16:35:05.035Z,1.80
2018-07-31T16:37:32.505Z,2.08
2018-07-31T16:39:59.907Z,2.10
2018-07-31T16:42:27.376Z,2.15
2018-07-31T16:44:54.834Z,2.33
2018-07-31T16:47:22.250Z,2.12
2018-07-31T16:49:49.671Z,2.17
2018-07-31T16:52:17.111Z,2.20
2018-07-31T16:54:44.688Z,1.80
2018-07-31T16:57:12.535Z,2.02
2018-07-31T17:02:14.345Z,2.35
2018-07-31T17:04:41.752Z,2.33
2018-07-31T17:07:09.180Z,2.25
2018-07-31T17:09:36.663Z,2.20
2018-07-31T17:12:04.115Z,2.20
2018-07-31T17:14:31.539Z,2.00
2018-07-31T17:16:58.984Z,1.87
2018-07-31T17:19:26.467Z,1.77
2018-07-31T17:21:53.891Z,2.12
2018-07-31T17:24:21.302Z,1.95
2018-07-31T17:26:48.721Z,1.75
2018-07-31T17:29:16.147Z,2.02
2018-07-31T17:31:43.574Z,1.85
2018-07-31T17:34:10.972Z,1.92
2018-07-31T17:36:38.384Z,2.20
2018-07-31T17:39:07.482Z,1.92
2018-07-31T17:41:34.880Z,2.17
2018-07-31T17:44:02.413Z,1.87
2018-07-31T17:46:29.825Z,1.62
2018-07-31T17:48:57.251Z,1.95
2018-07-31T17:51:24.660Z,2.15
2018-07-31T17:53:52.093Z,1.82
2018-07-31T17:56:19.516Z,1.80
2018-07-31T17:58:47.059Z,2.17
2018-07-31T18:01:14.469Z,1.60
2018-07-31T18:03:41.972Z,2.00
2018-07-31T18:06:09.374Z,2.08
2018-07-31T18:08:36.792Z,2.50
2018-07-31T18:11:04.200Z,1.80
2018-07-31T18:13:31.639Z,2.22
2018-07-31T18:15:59.054Z,1.90
2018-07-31T18:18:26.463Z,1.92
2018-07-31T18:20:53.911Z,2.47
2018-07-31T18:23:21.373Z,2.08
2018-07-31T18:25:48.794Z,1.90
2018-07-31T18:28:16.216Z,2.20
2018-07-31T18:30:43.660Z,1.80
2018-07-31T18:33:11.117Z,1.82
2018-07-31T18:35:38.547Z,1.70
2018-07-31T18:38:05.986Z,1.80
2018-07-31T18:40:33.388Z,1.70
2018-07-31T18:43:00.797Z,2.50
2018-07-31T18:45:28.611Z,2.37
2018-07-31T18:47:56.163Z,1.45
2018-07-31T18:50:23.595Z,1.77
2018-07-31T18:52:51.011Z,1.57
2018-07-31T18:55:18.423Z,1.77
2018-07-31T18:57:45.856Z,1.50
2018-07-31T19:00:13.335Z,2.00
2018-07-31T19:02:40.748Z,1.73
2018-07-31T19:05:08.170Z,1.57
2018-07-31T19:07:35.707Z,1.30
2018-07-31T19:10:03.152Z,1.43
2018-07-31T19:12:30.620Z,1.87
2018-07-31T19:14:58.071Z,2.17
2018-07-31T19:17:25.484Z,1.57
2018-07-31T19:19:52.896Z,1.97
2018-07-31T19:22:20.314Z,1.80
2018-07-31T19:24:47.828Z,1.70
2018-07-31T19:27:15.219Z,2.10
2018-07-31T19:29:42.636Z,1.63
2018-07-31T19:32:10.046Z,1.63
2018-07-31T19:34:37.488Z,1.90
2018-07-31T19:37:04.903Z,1.87
2018-07-31T19:39:32.322Z,2.20
2018-07-31T19:41:59.904Z,1.70
2018-07-31T19:44:27.214Z,1.37
2018-07-31T19:46:54.641Z,1.50
2018-07-31T19:49:22.086Z,2.80
2018-07-31T19:51:49.523Z,1.90
2018-07-31T19:54:16.943Z,2.20
2018-07-31T19:56:44.350Z,2.30
2018-07-31T19:59:11.999Z,2.87
2018-07-31T20:01:39.416Z,3.50
2018-07-31T20:04:06.831Z,2.50
2018-07-31T20:06:34.246Z,2.20
2018-07-31T20:09:01.641Z,2.30
2018-07-31T20:11:29.195Z,1.90
2018-07-31T20:13:56.639Z,1.60
2018-07-31T20:16:24.147Z,1.50
2018-07-31T20:18:51.578Z,1.70
2018-07-31T20:21:19.036Z,2.17
2018-07-31T20:23:46.653Z,1.80
2018-07-31T20:26:14.159Z,2.10
2018-07-31T20:28:41.583Z,1.90
2018-07-31T20:31:09.039Z,1.83
2018-07-31T20:33:36.449Z,2.80
2018-07-31T20:36:03.868Z,3.30
2018-07-31T20:38:31.290Z,1.80
2018-07-31T20:40:58.751Z,1.60
2018-07-31T20:43:26.211Z,1.50
2018-07-31T20:45:53.624Z,1.23
2018-07-31T20:48:21.030Z,2.07
2018-07-31T20:50:48.452Z,1.60
2018-07-31T20:53:15.887Z,1.67
2018-07-31T20:55:43.319Z,1.43
2018-07-31T20:58:10.757Z,1.67
2018-07-31T21:00:38.187Z,1.70
2018-07-31T21:03:05.611Z,1.43
2018-07-31T21:05:33.103Z,1.30
2018-07-31T21:08:00.538Z,1.30
2018-07-31T21:10:28.491Z,1.40
2018-07-31T21:12:55.955Z,1.30
2018-07-31T21:15:23.375Z,1.10
2018-07-31T21:17:50.835Z,1.37
2018-07-31T21:20:18.226Z,1.50
2018-07-31T21:22:45.647Z,1.87
2018-07-31T21:25:13.187Z,1.87
2018-07-31T21:27:40.567Z,1.67
2018-07-31T21:30:08.103Z,2.60
2018-07-31T21:32:35.549Z,1.60
2018-07-31T21:35:03.416Z,1.47
2018-07-31T21:37:30.845Z,2.10
2018-07-31T21:39:58.264Z,1.80
2018-07-31T21:42:25.712Z,1.63
2018-07-31T21:44:53.099Z,1.60
2018-07-31T21:47:20.502Z,1.70
2018-07-31T21:49:48.281Z,1.60
2018-07-31T21:52:15.819Z,1.87
2018-07-31T21:54:43.202Z,1.57
2018-07-31T21:57:10.844Z,1.37
2018-07-31T21:59:38.286Z,1.70
2018-07-31T22:02:05.692Z,1.50
2018-07-31T22:04:33.091Z,1.50
2018-07-31T22:07:00.476Z,1.60
2018-07-31T22:09:30.367Z,1.60
2018-07-31T22:11:58.183Z,1.70
2018-07-31T22:14:25.759Z,1.30
2018-07-31T22:16:53.157Z,1.40
2018-07-31T22:19:20.732Z,1.40
2018-07-31T22:21:48.273Z,1.63
2018-07-31T22:24:15.702Z,1.50
2018-07-31T22:26:43.126Z,1.43
2018-07-31T22:29:10.594Z,1.57
2018-07-31T22:31:38.031Z,1.50
2018-07-31T22:34:05.458Z,1.73
2018-07-31T22:36:32.852Z,1.67
2018-07-31T22:39:00.287Z,1.70
2018-07-31T22:41:28.118Z,2.00
2018-07-31T22:43:55.519Z,1.80
2018-07-31T22:46:22.892Z,1.40
2018-07-31T22:48:50.405Z,1.50
2018-07-31T22:51:17.880Z,1.80
2018-07-31T22:53:45.266Z,1.30
2018-07-31T22:56:12.819Z,1.70
2018-07-31T22:58:40.412Z,1.40
2018-07-31T23:01:07.814Z,1.47
2018-07-31T23:03:35.208Z,1.90
2018-07-31T23:06:02.838Z,1.97
2018-07-31T23:08:30.232Z,1.50
2018-07-31T23:10:57.670Z,1.47
2018-07-31T23:13:25.074Z,1.70
2018-07-31T23:15:52.491Z,1.37
2018-07-31T23:18:19.890Z,1.93
2018-07-31T23:20:47.325Z,1.67
2018-07-31T23:23:14.707Z,1.63
2018-07-31T23:25:42.098Z,1.90
2018-07-31T23:28:09.515Z,1.73
2018-07-31T23:30:36.919Z,1.83
2018-07-31T23:33:04.382Z,1.83
2018-07-31T23:35:31.774Z,1.53
2018-07-31T23:37:59.207Z,1.70
2018-07-31T23:40:26.617Z,1.90
2018-07-31T23:42:54.011Z,1.57
2018-07-31T23:45:21.420Z,2.37
2018-07-31T23:47:48.819Z,1.50
2018-07-31T23:50:16.232Z,1.97
2018-07-31T23:52:43.666Z,1.63
2018-07-31T23:55:11.091Z,1.70
2018-07-31T23:57:38.495Z,1.67
